sensor_id;sensor_type;location;lat;lon;timestamp;temperature;humidity
46356;DHT22;32066;49.474;11.106;2023-04-28T00:00:03;13.30;62.80
46356;DHT22;32066;49.474;11.106;2023-04-28T00:02:31;13.40;62.60
46356;DHT22;32066;49.474;11.106;2023-04-28T00:05:00;13.30;62.60
46356;DHT22;32066;49.474;11.106;2023-04-28T00:07:29;13.40;62.40
46356;DHT22;32066;49.474;11.106;2023-04-28T00:10:00;13.30;62.40
46356;DHT22;32066;49.474;11.106;2023-04-28T00:12:29;13.40;62.70
46356;DHT22;32066;49.474;11.106;2023-04-28T00:14:57;13.50;62.90
46356;DHT22;32066;49.474;11.106;2023-04-28T00:17:26;13.30;63.70
46356;DHT22;32066;49.474;11.106;2023-04-28T00:19:55;13.40;63.30
46356;DHT22;32066;49.474;11.106;2023-04-28T00:22:23;13.30;63.30
46356;DHT22;32066;49.474;11.106;2023-04-28T00:24:52;13.30;63.40
46356;DHT22;32066;49.474;11.106;2023-04-28T00:27:23;13.30;63.50
46356;DHT22;32066;49.474;11.106;2023-04-28T00:29:53;13.30;63.80
46356;DHT22;32066;49.474;11.106;2023-04-28T00:32:21;13.20;63.60
46356;DHT22;32066;49.474;11.106;2023-04-28T00:34:50;13.20;63.90
46356;DHT22;32066;49.474;11.106;2023-04-28T00:37:19;13.20;63.80
46356;DHT22;32066;49.474;11.106;2023-04-28T00:39:47;13.20;63.90
46356;DHT22;32066;49.474;11.106;2023-04-28T00:42:16;13.40;63.70
46356;DHT22;32066;49.474;11.106;2023-04-28T00:44:48;13.30;64.80
46356;DHT22;32066;49.474;11.106;2023-04-28T00:47:17;13.40;63.70
46356;DHT22;32066;49.474;11.106;2023-04-28T00:49:46;13.30;64.40
46356;DHT22;32066;49.474;11.106;2023-04-28T00:52:15;13.30;64.60
46356;DHT22;32066;49.474;11.106;2023-04-28T00:54:44;13.40;64.20
46356;DHT22;32066;49.474;11.106;2023-04-28T00:57:13;13.30;64.40
46356;DHT22;32066;49.474;11.106;2023-04-28T00:59:41;13.30;64.40
46356;DHT22;32066;49.474;11.106;2023-04-28T01:02:13;13.20;64.50
46356;DHT22;32066;49.474;11.106;2023-04-28T01:04:43;13.40;64.10
46356;DHT22;32066;49.474;11.106;2023-04-28T01:07:13;13.30;64.60
46356;DHT22;32066;49.474;11.106;2023-04-28T01:09:42;13.20;64.30
46356;DHT22;32066;49.474;11.106;2023-04-28T01:12:14;13.20;64.80
46356;DHT22;32066;49.474;11.106;2023-04-28T01:14:46;13.20;64.70
46356;DHT22;32066;49.474;11.106;2023-04-28T01:17:18;13.30;64.50
46356;DHT22;32066;49.474;11.106;2023-04-28T01:19:47;13.20;64.50
46356;DHT22;32066;49.474;11.106;2023-04-28T01:22:17;13.30;64.40
46356;DHT22;32066;49.474;11.106;2023-04-28T01:24:49;13.40;64.80
46356;DHT22;32066;49.474;11.106;2023-04-28T01:27:18;13.10;64.70
46356;DHT22;32066;49.474;11.106;2023-04-28T01:29:48;13.20;64.60
46356;DHT22;32066;49.474;11.106;2023-04-28T01:32:16;13.10;65.30
46356;DHT22;32066;49.474;11.106;2023-04-28T01:34:45;13.20;65.10
46356;DHT22;32066;49.474;11.106;2023-04-28T01:37:14;13.10;65.60
46356;DHT22;32066;49.474;11.106;2023-04-28T01:39:42;13.10;65.70
46356;DHT22;32066;49.474;11.106;2023-04-28T01:42:14;13.10;65.90
46356;DHT22;32066;49.474;11.106;2023-04-28T01:44:42;13.20;65.80
46356;DHT22;32066;49.474;11.106;2023-04-28T01:47:11;13.10;65.90
46356;DHT22;32066;49.474;11.106;2023-04-28T01:49:39;13.20;65.70
46356;DHT22;32066;49.474;11.106;2023-04-28T01:52:08;13.30;65.50
46356;DHT22;32066;49.474;11.106;2023-04-28T01:54:37;13.10;65.40
46356;DHT22;32066;49.474;11.106;2023-04-28T01:57:06;13.20;65.50
46356;DHT22;32066;49.474;11.106;2023-04-28T01:59:37;13.20;65.70
46356;DHT22;32066;49.474;11.106;2023-04-28T02:02:06;13.10;66.40
46356;DHT22;32066;49.474;11.106;2023-04-28T02:04:36;13.10;66.20
46356;DHT22;32066;49.474;11.106;2023-04-28T02:07:05;13.10;66.00
46356;DHT22;32066;49.474;11.106;2023-04-28T02:09:34;13.20;65.70
46356;DHT22;32066;49.474;11.106;2023-04-28T02:12:03;13.30;65.60
46356;DHT22;32066;49.474;11.106;2023-04-28T02:14:32;13.20;65.60
46356;DHT22;32066;49.474;11.106;2023-04-28T02:17:03;13.10;66.00
46356;DHT22;32066;49.474;11.106;2023-04-28T02:19:32;13.00;66.20
46356;DHT22;32066;49.474;11.106;2023-04-28T02:22:03;13.00;66.70
46356;DHT22;32066;49.474;11.106;2023-04-28T02:24:34;13.00;66.60
46356;DHT22;32066;49.474;11.106;2023-04-28T02:27:03;13.00;66.50
46356;DHT22;32066;49.474;11.106;2023-04-28T02:29:32;12.90;67.00
46356;DHT22;32066;49.474;11.106;2023-04-28T02:32:03;12.90;67.10
46356;DHT22;32066;49.474;11.106;2023-04-28T02:34:32;12.90;67.00
46356;DHT22;32066;49.474;11.106;2023-04-28T02:37:01;13.10;66.70
46356;DHT22;32066;49.474;11.106;2023-04-28T02:39:30;13.10;66.50
46356;DHT22;32066;49.474;11.106;2023-04-28T02:41:58;13.20;66.40
46356;DHT22;32066;49.474;11.106;2023-04-28T02:44:30;13.20;66.30
46356;DHT22;32066;49.474;11.106;2023-04-28T02:46:58;13.10;66.90
46356;DHT22;32066;49.474;11.106;2023-04-28T02:49:29;13.10;67.40
46356;DHT22;32066;49.474;11.106;2023-04-28T02:51:58;13.10;67.20
46356;DHT22;32066;49.474;11.106;2023-04-28T02:54:27;13.00;67.20
46356;DHT22;32066;49.474;11.106;2023-04-28T02:56:57;13.00;67.40
46356;DHT22;32066;49.474;11.106;2023-04-28T02:59:26;13.10;67.20
46356;DHT22;32066;49.474;11.106;2023-04-28T03:01:55;13.20;66.80
46356;DHT22;32066;49.474;11.106;2023-04-28T03:04:23;13.20;66.80
46356;DHT22;32066;49.474;11.106;2023-04-28T03:06:55;13.20;66.90
46356;DHT22;32066;49.474;11.106;2023-04-28T03:09:24;13.20;66.90
46356;DHT22;32066;49.474;11.106;2023-04-28T03:11:52;13.20;67.20
46356;DHT22;32066;49.474;11.106;2023-04-28T03:14:21;13.20;67.10
46356;DHT22;32066;49.474;11.106;2023-04-28T03:16:49;13.20;67.20
46356;DHT22;32066;49.474;11.106;2023-04-28T03:19:19;13.10;67.50
46356;DHT22;32066;49.474;11.106;2023-04-28T03:21:47;13.20;67.50
46356;DHT22;32066;49.474;11.106;2023-04-28T03:24:18;13.30;67.70
46356;DHT22;32066;49.474;11.106;2023-04-28T03:26:49;13.30;67.20
46356;DHT22;32066;49.474;11.106;2023-04-28T03:29:18;13.30;67.20
46356;DHT22;32066;49.474;11.106;2023-04-28T03:31:49;13.50;66.70
46356;DHT22;32066;49.474;11.106;2023-04-28T03:34:17;13.50;66.90
46356;DHT22;32066;49.474;11.106;2023-04-28T03:36:46;13.40;67.00
46356;DHT22;32066;49.474;11.106;2023-04-28T03:39:25;13.30;67.30
46356;DHT22;32066;49.474;11.106;2023-04-28T03:41:54;13.30;68.00
46356;DHT22;32066;49.474;11.106;2023-04-28T03:44:49;13.30;67.70
46356;DHT22;32066;49.474;11.106;2023-04-28T03:47:17;13.20;67.80
46356;DHT22;32066;49.474;11.106;2023-04-28T03:49:46;13.30;68.40
46356;DHT22;32066;49.474;11.106;2023-04-28T03:52:15;13.20;68.10
46356;DHT22;32066;49.474;11.106;2023-04-28T03:54:46;13.20;68.10
46356;DHT22;32066;49.474;11.106;2023-04-28T03:57:15;13.10;68.50
46356;DHT22;32066;49.474;11.106;2023-04-28T03:59:44;13.10;68.30
46356;DHT22;32066;49.474;11.106;2023-04-28T04:02:12;13.10;68.20
46356;DHT22;32066;49.474;11.106;2023-04-28T04:04:41;13.10;68.40
46356;DHT22;32066;49.474;11.106;2023-04-28T04:07:10;13.30;68.00
46356;DHT22;32066;49.474;11.106;2023-04-28T04:09:39;13.30;68.00
46356;DHT22;32066;49.474;11.106;2023-04-28T04:12:11;13.20;67.90
46356;DHT22;32066;49.474;11.106;2023-04-28T04:14:39;13.10;68.60
46356;DHT22;32066;49.474;11.106;2023-04-28T04:17:09;13.20;68.60
46356;DHT22;32066;49.474;11.106;2023-04-28T04:19:38;13.10;69.00
46356;DHT22;32066;49.474;11.106;2023-04-28T04:22:09;13.10;69.10
46356;DHT22;32066;49.474;11.106;2023-04-28T04:24:38;13.10;69.40
46356;DHT22;32066;49.474;11.106;2023-04-28T04:27:06;13.20;68.50
46356;DHT22;32066;49.474;11.106;2023-04-28T04:29:40;13.40;68.10
46356;DHT22;32066;49.474;11.106;2023-04-28T04:32:13;13.30;68.30
46356;DHT22;32066;49.474;11.106;2023-04-28T04:34:42;13.30;68.80
46356;DHT22;32066;49.474;11.106;2023-04-28T04:37:11;13.20;69.00
46356;DHT22;32066;49.474;11.106;2023-04-28T04:39:46;13.30;69.00
46356;DHT22;32066;49.474;11.106;2023-04-28T04:42:15;13.30;69.10
46356;DHT22;32066;49.474;11.106;2023-04-28T04:44:54;13.30;69.20
46356;DHT22;32066;49.474;11.106;2023-04-28T04:47:28;13.20;69.70
46356;DHT22;32066;49.474;11.106;2023-04-28T04:49:57;13.20;70.10
46356;DHT22;32066;49.474;11.106;2023-04-28T04:52:26;13.20;70.40
46356;DHT22;32066;49.474;11.106;2023-04-28T04:54:54;13.20;70.30
46356;DHT22;32066;49.474;11.106;2023-04-28T04:57:24;13.30;70.70
46356;DHT22;32066;49.474;11.106;2023-04-28T05:00:17;13.20;70.30
46356;DHT22;32066;49.474;11.106;2023-04-28T05:02:46;13.30;70.00
46356;DHT22;32066;49.474;11.106;2023-04-28T05:05:16;13.30;70.20
46356;DHT22;32066;49.474;11.106;2023-04-28T05:07:48;13.30;70.30
46356;DHT22;32066;49.474;11.106;2023-04-28T05:10:16;13.50;70.20
46356;DHT22;32066;49.474;11.106;2023-04-28T05:12:45;13.40;69.50
46356;DHT22;32066;49.474;11.106;2023-04-28T05:15:18;13.40;69.70
46356;DHT22;32066;49.474;11.106;2023-04-28T05:18:06;13.30;70.10
46356;DHT22;32066;49.474;11.106;2023-04-28T05:20:37;13.30;70.60
46356;DHT22;32066;49.474;11.106;2023-04-28T05:23:05;13.30;70.30
46356;DHT22;32066;49.474;11.106;2023-04-28T05:25:35;13.30;70.80
46356;DHT22;32066;49.474;11.106;2023-04-28T05:28:04;13.30;70.60
46356;DHT22;32066;49.474;11.106;2023-04-28T05:30:36;13.30;70.70
46356;DHT22;32066;49.474;11.106;2023-04-28T05:33:04;13.40;70.60
46356;DHT22;32066;49.474;11.106;2023-04-28T05:35:33;13.40;70.80
46356;DHT22;32066;49.474;11.106;2023-04-28T05:38:02;13.40;70.80
46356;DHT22;32066;49.474;11.106;2023-04-28T05:40:31;13.40;70.80
46356;DHT22;32066;49.474;11.106;2023-04-28T05:43:00;13.50;70.50
46356;DHT22;32066;49.474;11.106;2023-04-28T05:45:29;13.50;70.60
46356;DHT22;32066;49.474;11.106;2023-04-28T05:48:00;13.50;70.80
46356;DHT22;32066;49.474;11.106;2023-04-28T05:50:30;13.60;71.10
46356;DHT22;32066;49.474;11.106;2023-04-28T05:53:00;13.50;71.30
46356;DHT22;32066;49.474;11.106;2023-04-28T05:55:29;13.60;71.70
46356;DHT22;32066;49.474;11.106;2023-04-28T05:57:58;13.70;72.00
46356;DHT22;32066;49.474;11.106;2023-04-28T06:00:27;13.70;72.30
46356;DHT22;32066;49.474;11.106;2023-04-28T06:03:01;13.90;72.10
46356;DHT22;32066;49.474;11.106;2023-04-28T06:05:30;13.90;72.60
46356;DHT22;32066;49.474;11.106;2023-04-28T06:07:59;14.00;72.70
46356;DHT22;32066;49.474;11.106;2023-04-28T06:10:28;14.10;72.70
46356;DHT22;32066;49.474;11.106;2023-04-28T06:12:56;14.10;73.70
46356;DHT22;32066;49.474;11.106;2023-04-28T06:15:25;13.90;74.70
46356;DHT22;32066;49.474;11.106;2023-04-28T06:17:54;13.80;74.90
46356;DHT22;32066;49.474;11.106;2023-04-28T06:20:26;14.00;74.30
46356;DHT22;32066;49.474;11.106;2023-04-28T06:22:54;13.90;74.70
46356;DHT22;32066;49.474;11.106;2023-04-28T06:25:23;14.00;74.90
46356;DHT22;32066;49.474;11.106;2023-04-28T06:27:52;13.90;75.70
46356;DHT22;32066;49.474;11.106;2023-04-28T06:30:21;13.90;76.30
46356;DHT22;32066;49.474;11.106;2023-04-28T06:32:50;14.00;76.10
46356;DHT22;32066;49.474;11.106;2023-04-28T06:35:21;13.90;75.80
46356;DHT22;32066;49.474;11.106;2023-04-28T06:37:52;13.90;76.60
46356;DHT22;32066;49.474;11.106;2023-04-28T06:40:21;13.80;77.10
46356;DHT22;32066;49.474;11.106;2023-04-28T06:42:53;13.80;77.00
46356;DHT22;32066;49.474;11.106;2023-04-28T06:45:43;13.80;77.40
46356;DHT22;32066;49.474;11.106;2023-04-28T06:48:11;13.80;77.60
46356;DHT22;32066;49.474;11.106;2023-04-28T06:50:40;13.80;78.20
46356;DHT22;32066;49.474;11.106;2023-04-28T06:53:11;13.90;78.10
46356;DHT22;32066;49.474;11.106;2023-04-28T06:55:40;13.90;78.30
46356;DHT22;32066;49.474;11.106;2023-04-28T06:58:08;14.10;78.10
46356;DHT22;32066;49.474;11.106;2023-04-28T07:00:37;14.00;78.10
46356;DHT22;32066;49.474;11.106;2023-04-28T07:03:06;13.90;78.50
46356;DHT22;32066;49.474;11.106;2023-04-28T07:05:34;14.00;78.80
46356;DHT22;32066;49.474;11.106;2023-04-28T07:08:03;13.90;78.80
46356;DHT22;32066;49.474;11.106;2023-04-28T07:10:34;14.70;99.90
46356;DHT22;32066;49.474;11.106;2023-04-28T07:13:03;15.20;93.60
46356;DHT22;32066;49.474;11.106;2023-04-28T07:15:32;15.70;89.90
46356;DHT22;32066;49.474;11.106;2023-04-28T07:18:00;15.80;89.10
46356;DHT22;32066;49.474;11.106;2023-04-28T07:20:29;16.00;86.90
46356;DHT22;32066;49.474;11.106;2023-04-28T07:22:58;16.20;85.80
46356;DHT22;32066;49.474;11.106;2023-04-28T07:25:26;16.30;84.60
46356;DHT22;32066;49.474;11.106;2023-04-28T07:27:58;16.40;83.70
46356;DHT22;32066;49.474;11.106;2023-04-28T07:30:29;16.50;82.90
46356;DHT22;32066;49.474;11.106;2023-04-28T07:32:58;16.60;82.60
46356;DHT22;32066;49.474;11.106;2023-04-28T07:35:27;16.60;81.90
46356;DHT22;32066;49.474;11.106;2023-04-28T07:37:56;16.70;81.80
46356;DHT22;32066;49.474;11.106;2023-04-28T07:40:25;16.70;81.70
46356;DHT22;32066;49.474;11.106;2023-04-28T07:42:53;16.70;81.80
46356;DHT22;32066;49.474;11.106;2023-04-28T07:45:25;16.70;81.20
46356;DHT22;32066;49.474;11.106;2023-04-28T07:47:53;16.70;81.40
46356;DHT22;32066;49.474;11.106;2023-04-28T07:50:22;16.00;81.10
46356;DHT22;32066;49.474;11.106;2023-04-28T07:52:51;15.10;83.80
46356;DHT22;32066;49.474;11.106;2023-04-28T07:55:19;14.70;87.00
46356;DHT22;32066;49.474;11.106;2023-04-28T07:57:48;14.40;88.10
46356;DHT22;32066;49.474;11.106;2023-04-28T08:00:17;14.20;89.30
46356;DHT22;32066;49.474;11.106;2023-04-28T08:02:48;14.00;90.70
46356;DHT22;32066;49.474;11.106;2023-04-28T08:05:17;13.90;91.40
46356;DHT22;32066;49.474;11.106;2023-04-28T08:07:45;14.10;91.50
46356;DHT22;32066;49.474;11.106;2023-04-28T08:10:14;14.00;91.70
46356;DHT22;32066;49.474;11.106;2023-04-28T08:12:43;13.90;92.20
46356;DHT22;32066;49.474;11.106;2023-04-28T08:15:12;13.90;92.50
46356;DHT22;32066;49.474;11.106;2023-04-28T08:17:41;13.90;92.80
46356;DHT22;32066;49.474;11.106;2023-04-28T08:20:12;13.70;93.50
46356;DHT22;32066;49.474;11.106;2023-04-28T08:22:44;13.60;93.70
46356;DHT22;32066;49.474;11.106;2023-04-28T08:25:13;13.90;93.60
46356;DHT22;32066;49.474;11.106;2023-04-28T08:27:43;13.90;93.80
46356;DHT22;32066;49.474;11.106;2023-04-28T08:30:12;13.70;94.40
46356;DHT22;32066;49.474;11.106;2023-04-28T08:32:40;13.70;94.70
46356;DHT22;32066;49.474;11.106;2023-04-28T08:35:12;13.70;94.90
46356;DHT22;32066;49.474;11.106;2023-04-28T08:37:40;13.60;95.50
46356;DHT22;32066;49.474;11.106;2023-04-28T08:40:10;13.50;95.90
46356;DHT22;32066;49.474;11.106;2023-04-28T08:42:39;13.70;96.00
46356;DHT22;32066;49.474;11.106;2023-04-28T08:45:12;13.60;95.90
46356;DHT22;32066;49.474;11.106;2023-04-28T08:47:41;13.60;96.00
46356;DHT22;32066;49.474;11.106;2023-04-28T08:50:13;13.70;96.40
46356;DHT22;32066;49.474;11.106;2023-04-28T08:52:42;13.80;96.10
46356;DHT22;32066;49.474;11.106;2023-04-28T08:55:11;14.00;96.00
46356;DHT22;32066;49.474;11.106;2023-04-28T08:57:43;14.00;95.90
46356;DHT22;32066;49.474;11.106;2023-04-28T09:00:13;13.90;96.50
46356;DHT22;32066;49.474;11.106;2023-04-28T09:02:41;13.90;96.10
46356;DHT22;32066;49.474;11.106;2023-04-28T09:05:14;13.80;96.20
46356;DHT22;32066;49.474;11.106;2023-04-28T09:07:45;13.80;96.30
46356;DHT22;32066;49.474;11.106;2023-04-28T09:10:21;13.80;96.40
46356;DHT22;32066;49.474;11.106;2023-04-28T09:12:51;13.80;96.50
46356;DHT22;32066;49.474;11.106;2023-04-28T09:15:28;13.70;96.70
46356;DHT22;32066;49.474;11.106;2023-04-28T09:17:57;13.70;96.90
46356;DHT22;32066;49.474;11.106;2023-04-28T09:20:30;13.60;97.30
46356;DHT22;32066;49.474;11.106;2023-04-28T09:23:12;13.60;97.40
46356;DHT22;32066;49.474;11.106;2023-04-28T09:25:57;13.60;97.80
46356;DHT22;32066;49.474;11.106;2023-04-28T09:28:26;13.50;97.70
46356;DHT22;32066;49.474;11.106;2023-04-28T09:30:55;13.50;97.80
46356;DHT22;32066;49.474;11.106;2023-04-28T09:33:24;13.50;98.00
46356;DHT22;32066;49.474;11.106;2023-04-28T09:35:55;13.40;98.30
46356;DHT22;32066;49.474;11.106;2023-04-28T09:38:24;13.50;98.70
46356;DHT22;32066;49.474;11.106;2023-04-28T09:40:55;13.50;98.90
46356;DHT22;32066;49.474;11.106;2023-04-28T09:43:25;13.50;98.90
46356;DHT22;32066;49.474;11.106;2023-04-28T09:45:54;13.50;98.90
46356;DHT22;32066;49.474;11.106;2023-04-28T09:48:30;13.50;99.00
46356;DHT22;32066;49.474;11.106;2023-04-28T09:51:03;13.50;99.20
46356;DHT22;32066;49.474;11.106;2023-04-28T09:53:33;13.70;99.10
46356;DHT22;32066;49.474;11.106;2023-04-28T09:56:02;13.90;98.90
46356;DHT22;32066;49.474;11.106;2023-04-28T09:58:33;13.90;99.00
46356;DHT22;32066;49.474;11.106;2023-04-28T10:01:05;14.00;99.30
46356;DHT22;32066;49.474;11.106;2023-04-28T10:03:38;14.00;99.40
46356;DHT22;32066;49.474;11.106;2023-04-28T10:06:09;13.90;99.60
46356;DHT22;32066;49.474;11.106;2023-04-28T10:08:39;13.90;99.80
46356;DHT22;32066;49.474;11.106;2023-04-28T10:11:10;14.00;99.90
46356;DHT22;32066;49.474;11.106;2023-04-28T10:13:39;14.00;99.90
46356;DHT22;32066;49.474;11.106;2023-04-28T10:16:09;14.00;99.90
46356;DHT22;32066;49.474;11.106;2023-04-28T10:18:38;13.90;99.90
46356;DHT22;32066;49.474;11.106;2023-04-28T10:21:11;13.90;99.90
46356;DHT22;32066;49.474;11.106;2023-04-28T10:24:08;14.00;99.90
46356;DHT22;32066;49.474;11.106;2023-04-28T10:27:05;14.10;99.90
46356;DHT22;32066;49.474;11.106;2023-04-28T10:29:34;14.20;99.90
46356;DHT22;32066;49.474;11.106;2023-04-28T10:32:16;14.30;99.90
46356;DHT22;32066;49.474;11.106;2023-04-28T10:34:45;14.50;99.90
46356;DHT22;32066;49.474;11.106;2023-04-28T10:37:17;14.30;99.90
46356;DHT22;32066;49.474;11.106;2023-04-28T10:42:51;14.60;99.90
46356;DHT22;32066;49.474;11.106;2023-04-28T10:48:04;14.40;99.90
46356;DHT22;32066;49.474;11.106;2023-04-28T10:50:33;14.40;99.90
46356;DHT22;32066;49.474;11.106;2023-04-28T10:53:05;14.40;99.90
46356;DHT22;32066;49.474;11.106;2023-04-28T10:55:34;14.30;99.90
46356;DHT22;32066;49.474;11.106;2023-04-28T10:58:31;14.40;99.90
46356;DHT22;32066;49.474;11.106;2023-04-28T11:01:26;14.30;99.90
46356;DHT22;32066;49.474;11.106;2023-04-28T11:03:57;14.00;99.90
46356;DHT22;32066;49.474;11.106;2023-04-28T11:06:30;14.00;99.90
46356;DHT22;32066;49.474;11.106;2023-04-28T11:09:03;14.20;99.90
46356;DHT22;32066;49.474;11.106;2023-04-28T11:12:08;14.30;99.90
46356;DHT22;32066;49.474;11.106;2023-04-28T11:14:40;14.40;99.90
46356;DHT22;32066;49.474;11.106;2023-04-28T11:17:10;14.40;99.90
46356;DHT22;32066;49.474;11.106;2023-04-28T11:19:43;14.50;99.90
46356;DHT22;32066;49.474;11.106;2023-04-28T11:22:14;14.50;99.90
46356;DHT22;32066;49.474;11.106;2023-04-28T11:24:54;14.30;99.90
46356;DHT22;32066;49.474;11.106;2023-04-28T11:27:27;14.40;99.90
46356;DHT22;32066;49.474;11.106;2023-04-28T11:29:57;14.50;99.90
46356;DHT22;32066;49.474;11.106;2023-04-28T11:32:30;14.70;99.90
46356;DHT22;32066;49.474;11.106;2023-04-28T11:34:59;14.90;99.90
46356;DHT22;32066;49.474;11.106;2023-04-28T11:37:28;14.90;99.90
46356;DHT22;32066;49.474;11.106;2023-04-28T11:39:57;14.90;99.90
46356;DHT22;32066;49.474;11.106;2023-04-28T11:42:28;14.70;99.90
46356;DHT22;32066;49.474;11.106;2023-04-28T11:44:58;14.70;99.90
46356;DHT22;32066;49.474;11.106;2023-04-28T11:47:29;14.70;99.90
46356;DHT22;32066;49.474;11.106;2023-04-28T11:49:58;14.90;99.90
46356;DHT22;32066;49.474;11.106;2023-04-28T11:52:27;14.80;99.90
46356;DHT22;32066;49.474;11.106;2023-04-28T11:54:57;14.70;99.90
46356;DHT22;32066;49.474;11.106;2023-04-28T11:57:29;14.70;99.90
46356;DHT22;32066;49.474;11.106;2023-04-28T12:00:11;14.70;99.90
46356;DHT22;32066;49.474;11.106;2023-04-28T12:02:43;14.60;99.90
46356;DHT22;32066;49.474;11.106;2023-04-28T12:05:13;14.60;99.90
46356;DHT22;32066;49.474;11.106;2023-04-28T12:07:42;14.70;99.90
46356;DHT22;32066;49.474;11.106;2023-04-28T12:10:13;14.80;99.90
46356;DHT22;32066;49.474;11.106;2023-04-28T12:12:46;14.90;99.90
46356;DHT22;32066;49.474;11.106;2023-04-28T12:15:15;14.90;99.90
46356;DHT22;32066;49.474;11.106;2023-04-28T12:17:44;14.70;99.90
46356;DHT22;32066;49.474;11.106;2023-04-28T12:20:33;14.70;99.90
46356;DHT22;32066;49.474;11.106;2023-04-28T12:23:02;14.80;99.90
46356;DHT22;32066;49.474;11.106;2023-04-28T12:25:32;14.90;99.90
46356;DHT22;32066;49.474;11.106;2023-04-28T12:28:05;14.90;99.90
46356;DHT22;32066;49.474;11.106;2023-04-28T12:30:36;14.70;99.90
46356;DHT22;32066;49.474;11.106;2023-04-28T12:33:21;14.90;99.90
46356;DHT22;32066;49.474;11.106;2023-04-28T12:35:50;14.90;99.90
46356;DHT22;32066;49.474;11.106;2023-04-28T12:38:19;15.00;99.90
46356;DHT22;32066;49.474;11.106;2023-04-28T12:40:48;15.20;99.90
46356;DHT22;32066;49.474;11.106;2023-04-28T12:43:19;15.00;99.90
46356;DHT22;32066;49.474;11.106;2023-04-28T12:45:48;15.10;99.90
46356;DHT22;32066;49.474;11.106;2023-04-28T12:48:17;15.30;99.90
46356;DHT22;32066;49.474;11.106;2023-04-28T12:50:50;15.50;99.90
46356;DHT22;32066;49.474;11.106;2023-04-28T12:53:22;15.60;99.90
46356;DHT22;32066;49.474;11.106;2023-04-28T12:55:50;15.60;99.90
46356;DHT22;32066;49.474;11.106;2023-04-28T12:58:25;15.70;99.90
46356;DHT22;32066;49.474;11.106;2023-04-28T13:00:56;15.70;99.90
46356;DHT22;32066;49.474;11.106;2023-04-28T13:03:25;15.70;99.90
46356;DHT22;32066;49.474;11.106;2023-04-28T13:05:54;15.70;99.90
46356;DHT22;32066;49.474;11.106;2023-04-28T13:08:23;15.60;99.90
46356;DHT22;32066;49.474;11.106;2023-04-28T13:10:51;15.60;99.90
46356;DHT22;32066;49.474;11.106;2023-04-28T13:13:20;15.70;99.90
46356;DHT22;32066;49.474;11.106;2023-04-28T13:15:51;15.70;99.90
46356;DHT22;32066;49.474;11.106;2023-04-28T13:18:20;15.70;99.90
46356;DHT22;32066;49.474;11.106;2023-04-28T13:20:48;15.60;99.90
46356;DHT22;32066;49.474;11.106;2023-04-28T13:23:17;15.50;99.90
46356;DHT22;32066;49.474;11.106;2023-04-28T13:25:46;15.40;99.90
46356;DHT22;32066;49.474;11.106;2023-04-28T13:28:15;15.20;99.90
46356;DHT22;32066;49.474;11.106;2023-04-28T13:30:43;15.30;99.90
46356;DHT22;32066;49.474;11.106;2023-04-28T13:33:15;15.40;99.90
46356;DHT22;32066;49.474;11.106;2023-04-28T13:35:46;15.50;99.90
46356;DHT22;32066;49.474;11.106;2023-04-28T13:38:14;15.40;99.90
46356;DHT22;32066;49.474;11.106;2023-04-28T13:40:45;15.50;99.90
46356;DHT22;32066;49.474;11.106;2023-04-28T13:43:14;15.60;99.90
46356;DHT22;32066;49.474;11.106;2023-04-28T13:45:42;15.40;99.90
46356;DHT22;32066;49.474;11.106;2023-04-28T13:48:14;15.60;99.90
46356;DHT22;32066;49.474;11.106;2023-04-28T13:50:43;15.90;99.90
46356;DHT22;32066;49.474;11.106;2023-04-28T13:53:11;16.10;99.90
46356;DHT22;32066;49.474;11.106;2023-04-28T13:55:40;16.20;99.90
46356;DHT22;32066;49.474;11.106;2023-04-28T13:58:08;16.30;99.90
46356;DHT22;32066;49.474;11.106;2023-04-28T14:00:37;16.40;99.90
46356;DHT22;32066;49.474;11.106;2023-04-28T14:03:06;16.50;99.90
46356;DHT22;32066;49.474;11.106;2023-04-28T14:05:38;16.50;99.90
46356;DHT22;32066;49.474;11.106;2023-04-28T14:08:08;16.30;99.90
46356;DHT22;32066;49.474;11.106;2023-04-28T14:10:36;16.30;99.90
46356;DHT22;32066;49.474;11.106;2023-04-28T14:13:05;16.30;99.90
46356;DHT22;32066;49.474;11.106;2023-04-28T14:15:34;16.20;99.90
46356;DHT22;32066;49.474;11.106;2023-04-28T14:18:03;16.20;99.90
46356;DHT22;32066;49.474;11.106;2023-04-28T14:20:32;16.30;99.90
46356;DHT22;32066;49.474;11.106;2023-04-28T14:23:03;16.30;99.90
46356;DHT22;32066;49.474;11.106;2023-04-28T14:25:32;16.50;99.90
46356;DHT22;32066;49.474;11.106;2023-04-28T14:28:02;16.60;99.90
46356;DHT22;32066;49.474;11.106;2023-04-28T14:30:30;16.60;99.90
46356;DHT22;32066;49.474;11.106;2023-04-28T14:32:59;16.60;99.90
46356;DHT22;32066;49.474;11.106;2023-04-28T14:35:28;16.50;99.90
46356;DHT22;32066;49.474;11.106;2023-04-28T14:37:57;16.50;99.90
46356;DHT22;32066;49.474;11.106;2023-04-28T14:40:29;16.40;99.90
46356;DHT22;32066;49.474;11.106;2023-04-28T14:42:57;16.20;99.90
46356;DHT22;32066;49.474;11.106;2023-04-28T14:45:26;16.30;99.90
46356;DHT22;32066;49.474;11.106;2023-04-28T14:47:55;16.30;99.90
46356;DHT22;32066;49.474;11.106;2023-04-28T14:50:24;16.40;99.90
46356;DHT22;32066;49.474;11.106;2023-04-28T14:52:53;16.40;99.90
46356;DHT22;32066;49.474;11.106;2023-04-28T14:55:21;16.50;99.90
46356;DHT22;32066;49.474;11.106;2023-04-28T14:57:53;16.50;99.90
46356;DHT22;32066;49.474;11.106;2023-04-28T15:00:21;16.60;99.90
46356;DHT22;32066;49.474;11.106;2023-04-28T15:02:50;16.40;99.90
46356;DHT22;32066;49.474;11.106;2023-04-28T15:05:19;16.40;99.90
46356;DHT22;32066;49.474;11.106;2023-04-28T15:07:47;16.40;99.90
46356;DHT22;32066;49.474;11.106;2023-04-28T15:10:16;16.30;99.90
46356;DHT22;32066;49.474;11.106;2023-04-28T15:12:45;16.30;99.90
46356;DHT22;32066;49.474;11.106;2023-04-28T15:15:17;16.50;99.90
46356;DHT22;32066;49.474;11.106;2023-04-28T15:17:47;16.30;99.90
46356;DHT22;32066;49.474;11.106;2023-04-28T15:20:15;16.30;99.90
46356;DHT22;32066;49.474;11.106;2023-04-28T15:22:44;16.30;99.90
46356;DHT22;32066;49.474;11.106;2023-04-28T15:25:12;16.30;99.90
46356;DHT22;32066;49.474;11.106;2023-04-28T15:27:41;16.30;99.90
46356;DHT22;32066;49.474;11.106;2023-04-28T15:30:11;16.30;99.90
46356;DHT22;32066;49.474;11.106;2023-04-28T15:32:42;16.30;99.90
46356;DHT22;32066;49.474;11.106;2023-04-28T15:35:11;16.20;99.90
46356;DHT22;32066;49.474;11.106;2023-04-28T15:37:41;16.20;99.90
46356;DHT22;32066;49.474;11.106;2023-04-28T15:40:13;16.30;99.90